CA-0334 weather

CLOSED Sherard Bay Airport
Nunavut, Canada

Public forecast

Using degrees Celsius for public forecast. Weather courtesy of forecast.io.

METAR (pilot weather report)

Closest report is Resolute Bay Airport, 220.0 nm (407.4 km) ESE. Retrieved 2019/04/26 01:00 UTC (42 minutes ago):

CYRB 260100Z 35006KT 12SM -SN BKN040 OVC210 M22/M25 A2989 RMK SC6CI2 PCPN VRY LGT SLP135

TAF (pilot weather forecast)

Forecast is more than 12 hours old.

Closest forecast is Resolute Bay Airport, 220.0 nm (407.4 km) ESE. Retrieved 2019/04/25 00:39 UTC (1 day ago):

TAF CYRB 252338Z 2600/2624 35008KT P6SM OVC070 BECMG 2601/2603 VRB03KT FM260600 VRB03KT P6SM SCT080 BECMG 2608/2610 02010KT FM262100 02015KT P6SM BKN040 TEMPO 2621/2624 5SM -SN RMK NXT FCST BY 260600Z